sensor_id;sensor_type;location;lat;lon;timestamp;P1;durP1;ratioP1;P2;durP2;ratioP2
4698;SDS011;33708;49.466;11.176;2023-04-03T00:01:09;8.00;;;1.90;;
4698;SDS011;33708;49.466;11.176;2023-04-03T00:03:35;8.00;;;2.37;;
4698;SDS011;33708;49.466;11.176;2023-04-03T00:06:01;12.73;;;2.33;;
4698;SDS011;33708;49.466;11.176;2023-04-03T00:08:27;10.30;;;2.37;;
4698;SDS011;33708;49.466;11.176;2023-04-03T00:10:55;15.10;;;2.60;;
4698;SDS011;33708;49.466;11.176;2023-04-03T00:13:21;10.23;;;2.70;;
4698;SDS011;33708;49.466;11.176;2023-04-03T00:15:47;9.73;;;2.03;;
4698;SDS011;33708;49.466;11.176;2023-04-03T00:18:13;7.53;;;2.00;;
4698;SDS011;33708;49.466;11.176;2023-04-03T00:20:38;7.50;;;1.83;;
4698;SDS011;33708;49.466;11.176;2023-04-03T00:23:04;11.40;;;2.13;;
4698;SDS011;33708;49.466;11.176;2023-04-03T00:25:30;9.73;;;2.30;;
4698;SDS011;33708;49.466;11.176;2023-04-03T00:27:56;8.03;;;2.20;;
4698;SDS011;33708;49.466;11.176;2023-04-03T00:30:22;8.40;;;2.60;;
4698;SDS011;33708;49.466;11.176;2023-04-03T00:32:48;8.63;;;2.10;;
4698;SDS011;33708;49.466;11.176;2023-04-03T00:35:14;8.03;;;2.10;;
4698;SDS011;33708;49.466;11.176;2023-04-03T00:37:43;8.10;;;2.40;;
4698;SDS011;33708;49.466;11.176;2023-04-03T00:40:09;9.03;;;1.97;;
4698;SDS011;33708;49.466;11.176;2023-04-03T00:42:36;8.73;;;2.10;;
4698;SDS011;33708;49.466;11.176;2023-04-03T00:47:28;7.80;;;2.27;;
4698;SDS011;33708;49.466;11.176;2023-04-03T00:49:55;8.90;;;2.33;;
4698;SDS011;33708;49.466;11.176;2023-04-03T00:52:22;8.13;;;1.90;;
4698;SDS011;33708;49.466;11.176;2023-04-03T00:54:52;7.87;;;2.20;;
4698;SDS011;33708;49.466;11.176;2023-04-03T00:57:22;8.20;;;2.30;;
4698;SDS011;33708;49.466;11.176;2023-04-03T00:59:49;9.83;;;2.90;;
4698;SDS011;33708;49.466;11.176;2023-04-03T01:02:20;13.67;;;2.40;;
4698;SDS011;33708;49.466;11.176;2023-04-03T01:04:45;9.17;;;2.47;;
4698;SDS011;33708;49.466;11.176;2023-04-03T01:07:13;9.33;;;2.60;;
4698;SDS011;33708;49.466;11.176;2023-04-03T01:09:47;7.70;;;2.13;;
4698;SDS011;33708;49.466;11.176;2023-04-03T01:12:16;7.37;;;1.80;;
4698;SDS011;33708;49.466;11.176;2023-04-03T01:14:48;7.77;;;2.20;;
4698;SDS011;33708;49.466;11.176;2023-04-03T01:25:26;10.53;;;2.97;;
4698;SDS011;33708;49.466;11.176;2023-04-03T01:27:52;8.20;;;2.20;;
4698;SDS011;33708;49.466;11.176;2023-04-03T01:30:19;7.67;;;2.03;;
4698;SDS011;33708;49.466;11.176;2023-04-03T01:32:46;9.03;;;2.43;;
4698;SDS011;33708;49.466;11.176;2023-04-03T01:35:11;8.00;;;2.50;;
4698;SDS011;33708;49.466;11.176;2023-04-03T01:37:37;10.20;;;2.50;;
4698;SDS011;33708;49.466;11.176;2023-04-03T01:40:03;9.33;;;3.23;;
4698;SDS011;33708;49.466;11.176;2023-04-03T01:42:29;8.57;;;2.80;;
4698;SDS011;33708;49.466;11.176;2023-04-03T01:44:55;8.60;;;2.83;;
4698;SDS011;33708;49.466;11.176;2023-04-03T01:47:21;9.70;;;2.43;;
4698;SDS011;33708;49.466;11.176;2023-04-03T01:49:46;8.23;;;2.40;;
4698;SDS011;33708;49.466;11.176;2023-04-03T01:52:12;12.23;;;3.00;;
4698;SDS011;33708;49.466;11.176;2023-04-03T01:54:38;9.80;;;2.87;;
4698;SDS011;33708;49.466;11.176;2023-04-03T01:57:04;11.83;;;2.53;;
4698;SDS011;33708;49.466;11.176;2023-04-03T01:59:29;11.83;;;3.07;;
4698;SDS011;33708;49.466;11.176;2023-04-03T02:01:55;17.60;;;2.60;;
4698;SDS011;33708;49.466;11.176;2023-04-03T02:04:21;11.60;;;2.50;;
4698;SDS011;33708;49.466;11.176;2023-04-03T02:06:47;8.80;;;3.00;;
4698;SDS011;33708;49.466;11.176;2023-04-03T02:09:12;9.53;;;2.80;;
4698;SDS011;33708;49.466;11.176;2023-04-03T02:11:38;8.90;;;3.20;;
4698;SDS011;33708;49.466;11.176;2023-04-03T02:14:04;9.00;;;2.70;;
4698;SDS011;33708;49.466;11.176;2023-04-03T02:16:30;8.07;;;2.60;;
4698;SDS011;33708;49.466;11.176;2023-04-03T02:18:55;13.30;;;3.23;;
4698;SDS011;33708;49.466;11.176;2023-04-03T02:21:21;9.40;;;3.37;;
4698;SDS011;33708;49.466;11.176;2023-04-03T02:23:47;10.30;;;3.10;;
4698;SDS011;33708;49.466;11.176;2023-04-03T02:26:14;9.07;;;2.73;;
4698;SDS011;33708;49.466;11.176;2023-04-03T02:28:40;9.00;;;2.87;;
4698;SDS011;33708;49.466;11.176;2023-04-03T02:31:06;11.40;;;3.10;;
4698;SDS011;33708;49.466;11.176;2023-04-03T02:33:32;11.00;;;3.07;;
4698;SDS011;33708;49.466;11.176;2023-04-03T02:35:59;10.00;;;2.70;;
4698;SDS011;33708;49.466;11.176;2023-04-03T02:38:24;8.63;;;2.60;;
4698;SDS011;33708;49.466;11.176;2023-04-03T02:40:50;10.90;;;3.10;;
4698;SDS011;33708;49.466;11.176;2023-04-03T02:43:16;8.03;;;2.30;;
4698;SDS011;33708;49.466;11.176;2023-04-03T02:45:42;10.60;;;2.53;;
4698;SDS011;33708;49.466;11.176;2023-04-03T02:48:08;8.57;;;2.50;;
4698;SDS011;33708;49.466;11.176;2023-04-03T02:50:34;9.80;;;3.30;;
4698;SDS011;33708;49.466;11.176;2023-04-03T02:53:00;11.80;;;3.10;;
4698;SDS011;33708;49.466;11.176;2023-04-03T02:55:26;8.33;;;2.37;;
4698;SDS011;33708;49.466;11.176;2023-04-03T02:57:51;16.73;;;2.63;;
4698;SDS011;33708;49.466;11.176;2023-04-03T03:00:17;8.47;;;2.33;;
4698;SDS011;33708;49.466;11.176;2023-04-03T03:02:43;8.87;;;2.60;;
4698;SDS011;33708;49.466;11.176;2023-04-03T03:05:08;8.50;;;2.50;;
4698;SDS011;33708;49.466;11.176;2023-04-03T03:07:34;11.30;;;2.43;;
4698;SDS011;33708;49.466;11.176;2023-04-03T03:10:00;10.10;;;3.30;;
4698;SDS011;33708;49.466;11.176;2023-04-03T03:12:25;12.67;;;2.87;;
4698;SDS011;33708;49.466;11.176;2023-04-03T03:14:51;8.50;;;2.33;;
4698;SDS011;33708;49.466;11.176;2023-04-03T03:17:17;10.57;;;2.70;;
4698;SDS011;33708;49.466;11.176;2023-04-03T03:19:43;8.70;;;2.70;;
4698;SDS011;33708;49.466;11.176;2023-04-03T03:22:08;8.90;;;2.33;;
4698;SDS011;33708;49.466;11.176;2023-04-03T03:24:34;8.73;;;2.30;;
4698;SDS011;33708;49.466;11.176;2023-04-03T03:27:00;11.77;;;2.80;;
4698;SDS011;33708;49.466;11.176;2023-04-03T03:29:25;10.10;;;2.90;;
4698;SDS011;33708;49.466;11.176;2023-04-03T03:31:51;8.10;;;2.43;;
4698;SDS011;33708;49.466;11.176;2023-04-03T03:34:17;8.40;;;2.43;;
4698;SDS011;33708;49.466;11.176;2023-04-03T03:36:42;8.60;;;2.30;;
4698;SDS011;33708;49.466;11.176;2023-04-03T03:39:08;8.47;;;2.20;;
4698;SDS011;33708;49.466;11.176;2023-04-03T03:41:34;9.90;;;2.53;;
4698;SDS011;33708;49.466;11.176;2023-04-03T03:44:00;18.20;;;3.27;;
4698;SDS011;33708;49.466;11.176;2023-04-03T03:46:26;9.80;;;3.00;;
4698;SDS011;33708;49.466;11.176;2023-04-03T03:48:51;10.03;;;2.40;;
4698;SDS011;33708;49.466;11.176;2023-04-03T03:51:17;10.80;;;2.60;;
4698;SDS011;33708;49.466;11.176;2023-04-03T03:53:42;10.67;;;2.73;;
4698;SDS011;33708;49.466;11.176;2023-04-03T03:56:08;14.07;;;2.50;;
4698;SDS011;33708;49.466;11.176;2023-04-03T03:58:34;10.10;;;2.50;;
4698;SDS011;33708;49.466;11.176;2023-04-03T04:01:00;11.93;;;3.10;;
4698;SDS011;33708;49.466;11.176;2023-04-03T04:03:27;10.47;;;2.97;;
4698;SDS011;33708;49.466;11.176;2023-04-03T04:05:53;9.97;;;3.03;;
4698;SDS011;33708;49.466;11.176;2023-04-03T04:08:18;11.30;;;3.13;;
4698;SDS011;33708;49.466;11.176;2023-04-03T04:10:44;9.43;;;3.00;;
4698;SDS011;33708;49.466;11.176;2023-04-03T04:13:09;11.30;;;2.63;;
4698;SDS011;33708;49.466;11.176;2023-04-03T04:15:35;8.80;;;2.63;;
4698;SDS011;33708;49.466;11.176;2023-04-03T04:18:00;9.17;;;2.50;;
4698;SDS011;33708;49.466;11.176;2023-04-03T04:20:26;10.00;;;3.10;;
4698;SDS011;33708;49.466;11.176;2023-04-03T04:22:51;13.00;;;3.13;;
4698;SDS011;33708;49.466;11.176;2023-04-03T04:25:17;9.03;;;3.27;;
4698;SDS011;33708;49.466;11.176;2023-04-03T04:27:43;9.10;;;2.77;;
4698;SDS011;33708;49.466;11.176;2023-04-03T04:30:08;10.50;;;3.10;;
4698;SDS011;33708;49.466;11.176;2023-04-03T04:32:35;7.70;;;2.47;;
4698;SDS011;33708;49.466;11.176;2023-04-03T04:35:02;8.50;;;2.77;;
4698;SDS011;33708;49.466;11.176;2023-04-03T04:37:28;14.23;;;3.17;;
4698;SDS011;33708;49.466;11.176;2023-04-03T04:39:54;9.27;;;3.17;;
4698;SDS011;33708;49.466;11.176;2023-04-03T04:42:20;10.40;;;3.07;;
4698;SDS011;33708;49.466;11.176;2023-04-03T04:44:45;13.63;;;2.93;;
4698;SDS011;33708;49.466;11.176;2023-04-03T04:47:11;9.60;;;2.60;;
4698;SDS011;33708;49.466;11.176;2023-04-03T04:49:37;8.20;;;2.50;;
4698;SDS011;33708;49.466;11.176;2023-04-03T04:52:02;8.30;;;2.87;;
4698;SDS011;33708;49.466;11.176;2023-04-03T04:54:28;8.77;;;3.03;;
4698;SDS011;33708;49.466;11.176;2023-04-03T04:56:54;9.27;;;2.80;;
4698;SDS011;33708;49.466;11.176;2023-04-03T04:59:20;9.27;;;3.00;;
4698;SDS011;33708;49.466;11.176;2023-04-03T05:01:45;12.27;;;3.50;;
4698;SDS011;33708;49.466;11.176;2023-04-03T05:04:11;11.47;;;2.60;;
4698;SDS011;33708;49.466;11.176;2023-04-03T05:06:37;9.03;;;3.23;;
4698;SDS011;33708;49.466;11.176;2023-04-03T05:09:03;11.70;;;3.37;;
4698;SDS011;33708;49.466;11.176;2023-04-03T05:11:29;10.90;;;3.23;;
4698;SDS011;33708;49.466;11.176;2023-04-03T05:13:55;11.60;;;3.83;;
4698;SDS011;33708;49.466;11.176;2023-04-03T05:16:20;10.30;;;2.73;;
4698;SDS011;33708;49.466;11.176;2023-04-03T05:18:46;11.33;;;2.73;;
4698;SDS011;33708;49.466;11.176;2023-04-03T05:21:12;12.63;;;3.90;;
4698;SDS011;33708;49.466;11.176;2023-04-03T05:23:37;8.93;;;3.20;;
4698;SDS011;33708;49.466;11.176;2023-04-03T05:26:03;8.83;;;2.83;;
4698;SDS011;33708;49.466;11.176;2023-04-03T05:28:29;12.13;;;3.40;;
4698;SDS011;33708;49.466;11.176;2023-04-03T05:30:58;9.30;;;3.57;;
4698;SDS011;33708;49.466;11.176;2023-04-03T05:33:24;11.77;;;4.37;;
4698;SDS011;33708;49.466;11.176;2023-04-03T05:35:51;15.83;;;5.67;;
4698;SDS011;33708;49.466;11.176;2023-04-03T05:38:17;9.60;;;3.73;;
4698;SDS011;33708;49.466;11.176;2023-04-03T05:40:43;11.17;;;4.00;;
4698;SDS011;33708;49.466;11.176;2023-04-03T05:43:09;10.87;;;4.20;;
4698;SDS011;33708;49.466;11.176;2023-04-03T05:45:35;13.83;;;4.43;;
4698;SDS011;33708;49.466;11.176;2023-04-03T05:48:01;12.43;;;3.80;;
4698;SDS011;33708;49.466;11.176;2023-04-03T05:50:26;14.70;;;4.27;;
4698;SDS011;33708;49.466;11.176;2023-04-03T05:52:52;12.60;;;3.90;;
4698;SDS011;33708;49.466;11.176;2023-04-03T05:55:22;11.10;;;3.53;;
4698;SDS011;33708;49.466;11.176;2023-04-03T05:57:47;13.23;;;5.03;;
4698;SDS011;33708;49.466;11.176;2023-04-03T06:00:13;12.53;;;5.70;;
4698;SDS011;33708;49.466;11.176;2023-04-03T06:02:40;14.60;;;5.90;;
4698;SDS011;33708;49.466;11.176;2023-04-03T06:05:06;16.30;;;4.87;;
4698;SDS011;33708;49.466;11.176;2023-04-03T06:07:33;12.17;;;5.03;;
4698;SDS011;33708;49.466;11.176;2023-04-03T06:09:59;16.80;;;4.80;;
4698;SDS011;33708;49.466;11.176;2023-04-03T06:12:26;16.90;;;5.80;;
4698;SDS011;33708;49.466;11.176;2023-04-03T06:14:53;12.83;;;5.80;;
4698;SDS011;33708;49.466;11.176;2023-04-03T06:17:19;20.43;;;5.57;;
4698;SDS011;33708;49.466;11.176;2023-04-03T06:19:45;14.30;;;4.73;;
4698;SDS011;33708;49.466;11.176;2023-04-03T06:22:11;15.37;;;5.03;;
4698;SDS011;33708;49.466;11.176;2023-04-03T06:24:37;12.40;;;4.70;;
4698;SDS011;33708;49.466;11.176;2023-04-03T06:27:03;13.63;;;5.00;;
4698;SDS011;33708;49.466;11.176;2023-04-03T06:29:28;15.53;;;3.67;;
4698;SDS011;33708;49.466;11.176;2023-04-03T06:31:54;13.50;;;4.37;;
4698;SDS011;33708;49.466;11.176;2023-04-03T06:34:20;12.93;;;3.90;;
4698;SDS011;33708;49.466;11.176;2023-04-03T06:36:46;16.00;;;3.87;;
4698;SDS011;33708;49.466;11.176;2023-04-03T06:39:16;12.57;;;4.23;;
4698;SDS011;33708;49.466;11.176;2023-04-03T06:41:47;12.70;;;3.67;;
4698;SDS011;33708;49.466;11.176;2023-04-03T06:44:13;12.30;;;3.50;;
4698;SDS011;33708;49.466;11.176;2023-04-03T06:46:40;10.20;;;2.60;;
4698;SDS011;33708;49.466;11.176;2023-04-03T06:49:07;11.37;;;3.40;;
4698;SDS011;33708;49.466;11.176;2023-04-03T06:51:33;10.90;;;3.27;;
4698;SDS011;33708;49.466;11.176;2023-04-03T06:54:00;13.10;;;4.00;;
4698;SDS011;33708;49.466;11.176;2023-04-03T06:56:26;17.27;;;3.60;;
4698;SDS011;33708;49.466;11.176;2023-04-03T06:58:53;11.80;;;3.40;;
4698;SDS011;33708;49.466;11.176;2023-04-03T07:01:22;13.30;;;3.10;;
4698;SDS011;33708;49.466;11.176;2023-04-03T07:03:48;13.23;;;3.30;;
4698;SDS011;33708;49.466;11.176;2023-04-03T07:06:15;13.00;;;3.27;;
4698;SDS011;33708;49.466;11.176;2023-04-03T07:08:42;13.60;;;3.80;;
4698;SDS011;33708;49.466;11.176;2023-04-03T07:11:08;13.83;;;4.33;;
4698;SDS011;33708;49.466;11.176;2023-04-03T07:13:34;11.70;;;2.83;;
4698;SDS011;33708;49.466;11.176;2023-04-03T07:16:01;15.47;;;3.80;;
4698;SDS011;33708;49.466;11.176;2023-04-03T07:18:28;12.50;;;3.83;;
4698;SDS011;33708;49.466;11.176;2023-04-03T07:20:54;13.80;;;3.50;;
4698;SDS011;33708;49.466;11.176;2023-04-03T07:23:20;12.30;;;3.73;;
4698;SDS011;33708;49.466;11.176;2023-04-03T07:25:47;15.00;;;3.30;;
4698;SDS011;33708;49.466;11.176;2023-04-03T07:28:14;16.57;;;4.97;;
4698;SDS011;33708;49.466;11.176;2023-04-03T07:30:44;11.67;;;4.07;;
4698;SDS011;33708;49.466;11.176;2023-04-03T07:33:11;10.60;;;3.23;;
4698;SDS011;33708;49.466;11.176;2023-04-03T07:35:38;11.30;;;3.27;;
4698;SDS011;33708;49.466;11.176;2023-04-03T07:38:04;15.20;;;3.70;;
4698;SDS011;33708;49.466;11.176;2023-04-03T07:40:30;13.77;;;4.10;;
4698;SDS011;33708;49.466;11.176;2023-04-03T07:42:56;13.57;;;4.00;;
4698;SDS011;33708;49.466;11.176;2023-04-03T07:45:22;15.20;;;3.80;;
4698;SDS011;33708;49.466;11.176;2023-04-03T07:47:47;11.13;;;3.37;;
4698;SDS011;33708;49.466;11.176;2023-04-03T07:50:13;12.63;;;3.37;;
4698;SDS011;33708;49.466;11.176;2023-04-03T07:52:39;11.93;;;3.47;;
4698;SDS011;33708;49.466;11.176;2023-04-03T07:55:05;10.37;;;2.77;;
4698;SDS011;33708;49.466;11.176;2023-04-03T07:57:31;15.43;;;4.10;;
4698;SDS011;33708;49.466;11.176;2023-04-03T07:59:57;14.70;;;3.87;;
4698;SDS011;33708;49.466;11.176;2023-04-03T08:02:22;12.90;;;3.53;;
4698;SDS011;33708;49.466;11.176;2023-04-03T08:04:48;13.20;;;3.83;;
4698;SDS011;33708;49.466;11.176;2023-04-03T08:07:14;10.40;;;3.07;;
4698;SDS011;33708;49.466;11.176;2023-04-03T08:09:40;14.47;;;2.80;;
4698;SDS011;33708;49.466;11.176;2023-04-03T08:12:06;11.00;;;3.03;;
4698;SDS011;33708;49.466;11.176;2023-04-03T08:14:32;10.13;;;3.40;;
4698;SDS011;33708;49.466;11.176;2023-04-03T08:16:59;12.43;;;3.80;;
4698;SDS011;33708;49.466;11.176;2023-04-03T08:19:26;13.37;;;3.00;;
4698;SDS011;33708;49.466;11.176;2023-04-03T08:21:52;12.67;;;2.43;;
4698;SDS011;33708;49.466;11.176;2023-04-03T08:24:23;16.43;;;3.37;;
4698;SDS011;33708;49.466;11.176;2023-04-03T08:26:49;12.73;;;3.03;;
4698;SDS011;33708;49.466;11.176;2023-04-03T08:29:15;13.90;;;3.30;;
4698;SDS011;33708;49.466;11.176;2023-04-03T08:31:40;12.47;;;2.43;;
4698;SDS011;33708;49.466;11.176;2023-04-03T08:34:06;11.80;;;2.90;;
4698;SDS011;33708;49.466;11.176;2023-04-03T08:36:32;10.17;;;3.00;;
4698;SDS011;33708;49.466;11.176;2023-04-03T08:38:57;10.40;;;2.67;;
4698;SDS011;33708;49.466;11.176;2023-04-03T08:41:36;13.10;;;2.90;;
4698;SDS011;33708;49.466;11.176;2023-04-03T08:51:56;10.50;;;2.43;;
4698;SDS011;33708;49.466;11.176;2023-04-03T08:54:26;10.33;;;2.30;;
4698;SDS011;33708;49.466;11.176;2023-04-03T08:56:55;9.70;;;2.13;;
4698;SDS011;33708;49.466;11.176;2023-04-03T08:59:29;11.97;;;2.43;;
4698;SDS011;33708;49.466;11.176;2023-04-03T09:01:59;14.50;;;2.90;;
4698;SDS011;33708;49.466;11.176;2023-04-03T09:04:30;10.67;;;2.40;;
4698;SDS011;33708;49.466;11.176;2023-04-03T09:06:59;11.30;;;2.80;;
4698;SDS011;33708;49.466;11.176;2023-04-03T09:09:36;10.47;;;2.90;;
4698;SDS011;33708;49.466;11.176;2023-04-03T09:20:30;9.43;;;2.40;;
4698;SDS011;33708;49.466;11.176;2023-04-03T09:25:47;13.43;;;3.30;;
4698;SDS011;33708;49.466;11.176;2023-04-03T09:28:13;12.37;;;2.40;;
4698;SDS011;33708;49.466;11.176;2023-04-03T09:30:39;10.60;;;2.80;;
4698;SDS011;33708;49.466;11.176;2023-04-03T09:33:05;11.23;;;2.60;;
4698;SDS011;33708;49.466;11.176;2023-04-03T09:35:32;10.40;;;2.80;;
4698;SDS011;33708;49.466;11.176;2023-04-03T09:45:43;9.57;;;2.53;;
4698;SDS011;33708;49.466;11.176;2023-04-03T09:53:28;9.40;;;2.23;;
4698;SDS011;33708;49.466;11.176;2023-04-03T09:55:56;11.67;;;2.90;;
4698;SDS011;33708;49.466;11.176;2023-04-03T09:58:33;15.00;;;2.87;;
4698;SDS011;33708;49.466;11.176;2023-04-03T10:01:03;10.87;;;2.40;;
4698;SDS011;33708;49.466;11.176;2023-04-03T10:06:14;11.40;;;2.30;;
4698;SDS011;33708;49.466;11.176;2023-04-03T10:09:49;11.77;;;2.53;;
4698;SDS011;33708;49.466;11.176;2023-04-03T10:14:27;9.90;;;2.30;;
4698;SDS011;33708;49.466;11.176;2023-04-03T10:16:59;9.67;;;2.43;;
4698;SDS011;33708;49.466;11.176;2023-04-03T10:22:43;12.23;;;2.70;;
4698;SDS011;33708;49.466;11.176;2023-04-03T10:28:28;8.73;;;2.30;;
4698;SDS011;33708;49.466;11.176;2023-04-03T10:31:14;8.07;;;1.77;;
4698;SDS011;33708;49.466;11.176;2023-04-03T10:39:40;10.43;;;2.27;;
4698;SDS011;33708;49.466;11.176;2023-04-03T10:42:35;10.60;;;2.33;;
4698;SDS011;33708;49.466;11.176;2023-04-03T10:45:31;12.30;;;2.30;;
4698;SDS011;33708;49.466;11.176;2023-04-03T10:51:24;10.00;;;2.43;;
4698;SDS011;33708;49.466;11.176;2023-04-03T10:56:37;8.40;;;2.00;;
4698;SDS011;33708;49.466;11.176;2023-04-03T11:02:00;9.80;;;2.00;;
4698;SDS011;33708;49.466;11.176;2023-04-03T11:04:30;9.27;;;2.30;;
4698;SDS011;33708;49.466;11.176;2023-04-03T11:09:27;9.60;;;2.47;;
4698;SDS011;33708;49.466;11.176;2023-04-03T11:12:17;9.30;;;2.57;;
4698;SDS011;33708;49.466;11.176;2023-04-03T11:14:43;8.47;;;2.30;;
4698;SDS011;33708;49.466;11.176;2023-04-03T11:22:30;9.60;;;2.00;;
4698;SDS011;33708;49.466;11.176;2023-04-03T11:25:20;9.27;;;2.30;;
4698;SDS011;33708;49.466;11.176;2023-04-03T11:27:51;8.73;;;1.93;;
4698;SDS011;33708;49.466;11.176;2023-04-03T11:36:29;9.47;;;2.07;;
4698;SDS011;33708;49.466;11.176;2023-04-03T11:38:57;11.23;;;2.13;;
4698;SDS011;33708;49.466;11.176;2023-04-03T11:41:29;8.50;;;2.10;;
4698;SDS011;33708;49.466;11.176;2023-04-03T11:44:04;8.30;;;2.20;;
4698;SDS011;33708;49.466;11.176;2023-04-03T11:46:52;9.10;;;2.10;;
4698;SDS011;33708;49.466;11.176;2023-04-03T12:16:21;10.30;;;2.20;;
4698;SDS011;33708;49.466;11.176;2023-04-03T12:21:20;9.13;;;2.17;;
4698;SDS011;33708;49.466;11.176;2023-04-03T12:29:25;7.90;;;1.70;;
4698;SDS011;33708;49.466;11.176;2023-04-03T12:48:37;8.27;;;2.00;;
4698;SDS011;33708;49.466;11.176;2023-04-03T12:51:12;8.67;;;1.97;;
4698;SDS011;33708;49.466;11.176;2023-04-03T12:54:03;9.17;;;2.07;;
4698;SDS011;33708;49.466;11.176;2023-04-03T12:56:38;10.30;;;1.73;;
4698;SDS011;33708;49.466;11.176;2023-04-03T13:01:54;9.37;;;1.90;;
4698;SDS011;33708;49.466;11.176;2023-04-03T13:04:20;10.20;;;1.77;;
4698;SDS011;33708;49.466;11.176;2023-04-03T13:06:46;8.40;;;1.73;;
4698;SDS011;33708;49.466;11.176;2023-04-03T13:09:21;8.10;;;1.80;;
4698;SDS011;33708;49.466;11.176;2023-04-03T13:11:51;7.50;;;1.60;;
4698;SDS011;33708;49.466;11.176;2023-04-03T13:14:22;9.50;;;2.00;;
4698;SDS011;33708;49.466;11.176;2023-04-03T13:16:54;10.30;;;2.30;;
4698;SDS011;33708;49.466;11.176;2023-04-03T13:19:21;8.67;;;2.20;;
4698;SDS011;33708;49.466;11.176;2023-04-03T13:21:49;8.10;;;1.80;;
4698;SDS011;33708;49.466;11.176;2023-04-03T13:24:20;8.13;;;2.10;;
4698;SDS011;33708;49.466;11.176;2023-04-03T13:26:46;9.20;;;1.83;;
4698;SDS011;33708;49.466;11.176;2023-04-03T13:29:31;8.97;;;2.33;;
4698;SDS011;33708;49.466;11.176;2023-04-03T13:32:02;8.67;;;2.20;;
4698;SDS011;33708;49.466;11.176;2023-04-03T13:34:35;9.07;;;2.30;;
4698;SDS011;33708;49.466;11.176;2023-04-03T13:37:03;8.87;;;1.87;;
4698;SDS011;33708;49.466;11.176;2023-04-03T13:39:31;7.83;;;1.93;;
4698;SDS011;33708;49.466;11.176;2023-04-03T13:41:59;8.80;;;1.93;;
4698;SDS011;33708;49.466;11.176;2023-04-03T13:44:34;7.70;;;1.70;;
4698;SDS011;33708;49.466;11.176;2023-04-03T13:49:39;13.40;;;1.93;;
4698;SDS011;33708;49.466;11.176;2023-04-03T13:52:30;11.40;;;2.00;;
4698;SDS011;33708;49.466;11.176;2023-04-03T13:55:02;9.57;;;1.90;;
4698;SDS011;33708;49.466;11.176;2023-04-03T14:00:49;9.23;;;2.30;;
4698;SDS011;33708;49.466;11.176;2023-04-03T14:05:47;7.73;;;1.80;;
4698;SDS011;33708;49.466;11.176;2023-04-03T14:08:12;12.60;;;2.20;;
4698;SDS011;33708;49.466;11.176;2023-04-03T14:10:38;8.20;;;2.00;;
4698;SDS011;33708;49.466;11.176;2023-04-03T14:13:04;10.43;;;2.27;;
4698;SDS011;33708;49.466;11.176;2023-04-03T14:15:30;9.57;;;2.27;;
4698;SDS011;33708;49.466;11.176;2023-04-03T14:17:57;15.53;;;2.50;;
4698;SDS011;33708;49.466;11.176;2023-04-03T14:20:24;8.47;;;1.93;;
4698;SDS011;33708;49.466;11.176;2023-04-03T14:22:51;8.90;;;2.53;;
4698;SDS011;33708;49.466;11.176;2023-04-03T14:25:19;12.37;;;2.40;;
4698;SDS011;33708;49.466;11.176;2023-04-03T14:27:48;10.30;;;2.20;;
4698;SDS011;33708;49.466;11.176;2023-04-03T14:30:22;9.33;;;2.10;;
4698;SDS011;33708;49.466;11.176;2023-04-03T14:32:50;13.03;;;2.73;;
4698;SDS011;33708;49.466;11.176;2023-04-03T14:35:17;9.80;;;1.80;;
4698;SDS011;33708;49.466;11.176;2023-04-03T14:37:43;11.00;;;2.03;;
4698;SDS011;33708;49.466;11.176;2023-04-03T14:40:12;11.10;;;2.07;;
4698;SDS011;33708;49.466;11.176;2023-04-03T14:42:40;9.33;;;2.40;;
4698;SDS011;33708;49.466;11.176;2023-04-03T14:45:07;14.13;;;2.50;;
4698;SDS011;33708;49.466;11.176;2023-04-03T14:47:39;9.60;;;2.30;;
4698;SDS011;33708;49.466;11.176;2023-04-03T14:50:18;8.83;;;2.00;;
4698;SDS011;33708;49.466;11.176;2023-04-03T14:52:48;10.23;;;2.10;;
4698;SDS011;33708;49.466;11.176;2023-04-03T14:55:16;9.47;;;2.30;;
4698;SDS011;33708;49.466;11.176;2023-04-03T14:57:43;8.63;;;2.10;;
4698;SDS011;33708;49.466;11.176;2023-04-03T15:00:18;8.43;;;2.17;;
4698;SDS011;33708;49.466;11.176;2023-04-03T15:02:45;10.27;;;2.07;;
4698;SDS011;33708;49.466;11.176;2023-04-03T15:05:12;11.13;;;2.93;;
4698;SDS011;33708;49.466;11.176;2023-04-03T15:07:40;12.10;;;3.00;;
4698;SDS011;33708;49.466;11.176;2023-04-03T15:12:39;9.43;;;2.37;;
4698;SDS011;33708;49.466;11.176;2023-04-03T15:15:05;10.63;;;2.23;;
4698;SDS011;33708;49.466;11.176;2023-04-03T15:17:31;8.70;;;1.87;;
4698;SDS011;33708;49.466;11.176;2023-04-03T15:19:59;12.07;;;2.73;;
4698;SDS011;33708;49.466;11.176;2023-04-03T15:22:25;10.90;;;2.53;;
4698;SDS011;33708;49.466;11.176;2023-04-03T15:24:51;8.60;;;1.83;;
4698;SDS011;33708;49.466;11.176;2023-04-03T15:27:17;11.90;;;2.30;;
4698;SDS011;33708;49.466;11.176;2023-04-03T15:29:43;9.70;;;1.97;;
4698;SDS011;33708;49.466;11.176;2023-04-03T15:32:09;9.50;;;2.50;;
4698;SDS011;33708;49.466;11.176;2023-04-03T15:34:36;9.27;;;2.37;;
4698;SDS011;33708;49.466;11.176;2023-04-03T15:37:02;9.00;;;2.40;;
4698;SDS011;33708;49.466;11.176;2023-04-03T15:39:28;9.67;;;2.23;;
4698;SDS011;33708;49.466;11.176;2023-04-03T15:41:54;7.83;;;1.93;;
4698;SDS011;33708;49.466;11.176;2023-04-03T15:44:20;9.70;;;2.00;;
4698;SDS011;33708;49.466;11.176;2023-04-03T15:46:46;13.93;;;2.33;;
4698;SDS011;33708;49.466;11.176;2023-04-03T15:49:13;8.43;;;2.37;;
4698;SDS011;33708;49.466;11.176;2023-04-03T15:51:40;17.10;;;2.23;;
4698;SDS011;33708;49.466;11.176;2023-04-03T15:54:05;9.00;;;2.20;;
4698;SDS011;33708;49.466;11.176;2023-04-03T15:56:31;9.20;;;2.30;;
4698;SDS011;33708;49.466;11.176;2023-04-03T15:58:57;10.07;;;1.90;;
4698;SDS011;33708;49.466;11.176;2023-04-03T16:01:22;18.20;;;2.90;;
4698;SDS011;33708;49.466;11.176;2023-04-03T16:03:48;12.60;;;2.90;;
4698;SDS011;33708;49.466;11.176;2023-04-03T16:06:14;11.63;;;2.57;;
4698;SDS011;33708;49.466;11.176;2023-04-03T16:08:42;11.33;;;2.90;;
4698;SDS011;33708;49.466;11.176;2023-04-03T16:11:08;9.47;;;2.27;;
4698;SDS011;33708;49.466;11.176;2023-04-03T16:13:34;10.37;;;2.40;;
4698;SDS011;33708;49.466;11.176;2023-04-03T16:16:00;8.93;;;2.30;;
4698;SDS011;33708;49.466;11.176;2023-04-03T16:18:27;12.00;;;2.07;;
4698;SDS011;33708;49.466;11.176;2023-04-03T16:20:54;8.10;;;1.80;;
4698;SDS011;33708;49.466;11.176;2023-04-03T16:23:19;8.87;;;2.10;;
4698;SDS011;33708;49.466;11.176;2023-04-03T16:25:46;11.63;;;2.27;;
4698;SDS011;33708;49.466;11.176;2023-04-03T16:28:13;10.20;;;2.70;;
4698;SDS011;33708;49.466;11.176;2023-04-03T16:30:40;8.77;;;2.17;;
4698;SDS011;33708;49.466;11.176;2023-04-03T16:33:06;9.93;;;1.97;;
4698;SDS011;33708;49.466;11.176;2023-04-03T16:35:32;9.80;;;2.50;;
4698;SDS011;33708;49.466;11.176;2023-04-03T16:37:58;11.13;;;3.40;;
4698;SDS011;33708;49.466;11.176;2023-04-03T16:40:23;13.20;;;4.00;;
4698;SDS011;33708;49.466;11.176;2023-04-03T16:42:49;13.30;;;4.07;;
4698;SDS011;33708;49.466;11.176;2023-04-03T16:45:15;11.13;;;3.50;;
4698;SDS011;33708;49.466;11.176;2023-04-03T16:47:41;13.93;;;5.33;;
4698;SDS011;33708;49.466;11.176;2023-04-03T16:50:06;11.50;;;3.10;;
4698;SDS011;33708;49.466;11.176;2023-04-03T16:52:32;9.33;;;3.10;;
4698;SDS011;33708;49.466;11.176;2023-04-03T16:54:59;12.70;;;5.00;;
4698;SDS011;33708;49.466;11.176;2023-04-03T16:57:25;12.23;;;3.50;;
4698;SDS011;33708;49.466;11.176;2023-04-03T16:59:51;8.50;;;2.43;;
4698;SDS011;33708;49.466;11.176;2023-04-03T17:02:17;9.10;;;2.30;;
4698;SDS011;33708;49.466;11.176;2023-04-03T17:04:43;14.20;;;2.17;;
4698;SDS011;33708;49.466;11.176;2023-04-03T17:07:08;10.53;;;2.00;;
4698;SDS011;33708;49.466;11.176;2023-04-03T17:09:34;7.90;;;1.90;;
4698;SDS011;33708;49.466;11.176;2023-04-03T17:12:00;8.83;;;1.97;;